Iwakuni Marine Corps Air Station
RJOI : now visible

Airfield :











YOU CAN JOIN US ON...

 
LOGIN :

Register | Disclaimer

   EN    FR    IT 

 









Legend :    VFR   Marginal VFR   IFR   Intensive IFR   Very Intensive IFR
Visi :
Ceiling :
>= 8 km
>= 3000ft
5 to 8 km
1000 to 3000 ft
1500m to 5 km
500 to 1000 ft
800 to 1500m
200 to 500 ft
< 800m
< 200 ft
Symbols :   Thunderstorms  Fog  Heavy snow  Heavy precipitations  Wind > 20 kt






- Airport Elevation : 7 ft


RJOI - Iwakuni Marine Corps Air Station

CURRENT METAR :
  • 211456Z 31003KT 8000 BR FEW010 BKN025 OVC040 18/16 A2981 RMK AO2 RAE54 SLP093 P0001 60005 T01780161 41780144 56008

EXPIRED METARs :
  • 211356Z 00000KT 4800 -DZ BR FEW010 BKN025 OVC050 18/16 A2981 RMK AO2 SLP095 P0001 T01780161
  • 211256Z 00000KT 4000 -RA BR FEW020 BKN060 OVC090 17/16 A2982 RMK AO2 SLP096 P0003 T01720161
  • 211156Z COR 00000KT 4000 -RA BR FEW030 BKN060 OVC080 17/16 A2983 RMK AO2 SLP101 P0005 60024 70113 T01720156 10172 20167 53007
  • 211056Z 00000KT 4000 -RA BR SCT020 BKN040 OVC060 17/16 A2982 RMK AO2 SLP097 P0010 T01720156

TAF TAF RJOI
Valid from the 21 at 15:00 until the 22 at 15:00 UTC


2115/2215 VRB03KT 8000 BR FEW020 BKN060 OVC090 621303 QNH2976INS
FM211700 VRB03KT 8000 BR FEW020 BKN060 OVC090 600000 QNH2975INS
FM212100 VRB03KT 9000 BR FEW020 BKN040 BKN200 QNH2979INS
FM212300 VRB03KT 9999 FEW020 BKN040 BKN200 621807 QNH2980INS
FM220400 VRB03KT 9999 FEW020 BKN040 OVC100 621109 612005 QNH2981INS
FM221000 VRB03KT 4800 BR SCT010 BKN030 OVC050 600000 QNH2982INS T15/2120Z T20/2105Z
RJJJ FIR / Asia



MET'MAP, your aeronautical weather chart ! - Copyright ORBIFLY December 2007 - Disclaimer

ORBIFLY MET'MAP TEAM :

Programming & Development : Alexandra Zaïnal
Original concept : Baudouin d'Aumeries
Technical & hardware support : Manuel Goepfert
Assistance : Marc-Olivier Méhu




SOURCES & CREDITS :

   NOAA       Earth
Advisory